sensor_id;sensor_type;location;lat;lon;timestamp;temperature;humidity
11908;DHT22;6014;47.690;9.130;2023-06-26T00:00:31;16.50;99.90
11908;DHT22;6014;47.690;9.130;2023-06-26T00:03:08;16.40;99.90
11908;DHT22;6014;47.690;9.130;2023-06-26T00:05:49;16.40;99.90
11908;DHT22;6014;47.690;9.130;2023-06-26T00:08:17;16.40;99.90
11908;DHT22;6014;47.690;9.130;2023-06-26T00:11:10;16.40;99.90
11908;DHT22;6014;47.690;9.130;2023-06-26T00:13:38;16.30;99.90
11908;DHT22;6014;47.690;9.130;2023-06-26T00:16:06;16.30;99.90
11908;DHT22;6014;47.690;9.130;2023-06-26T00:18:36;16.30;99.90
11908;DHT22;6014;47.690;9.130;2023-06-26T00:21:04;16.30;99.90
11908;DHT22;6014;47.690;9.130;2023-06-26T00:23:34;16.10;99.90
11908;DHT22;6014;47.690;9.130;2023-06-26T00:26:14;16.10;99.90
11908;DHT22;6014;47.690;9.130;2023-06-26T00:28:42;16.20;99.90
11908;DHT22;6014;47.690;9.130;2023-06-26T00:31:10;16.10;99.90
11908;DHT22;6014;47.690;9.130;2023-06-26T00:33:40;16.10;99.90
11908;DHT22;6014;47.690;9.130;2023-06-26T00:36:17;16.00;99.90
11908;DHT22;6014;47.690;9.130;2023-06-26T00:38:45;16.00;99.90
11908;DHT22;6014;47.690;9.130;2023-06-26T00:41:13;16.00;99.90
11908;DHT22;6014;47.690;9.130;2023-06-26T00:43:44;15.90;99.90
11908;DHT22;6014;47.690;9.130;2023-06-26T00:46:13;15.90;99.90
11908;DHT22;6014;47.690;9.130;2023-06-26T00:48:44;15.90;99.90
11908;DHT22;6014;47.690;9.130;2023-06-26T00:51:14;15.80;99.90
11908;DHT22;6014;47.690;9.130;2023-06-26T00:53:42;15.90;99.90
11908;DHT22;6014;47.690;9.130;2023-06-26T00:56:11;15.80;99.90
11908;DHT22;6014;47.690;9.130;2023-06-26T00:58:40;15.90;99.90
11908;DHT22;6014;47.690;9.130;2023-06-26T01:01:08;15.80;99.90
11908;DHT22;6014;47.690;9.130;2023-06-26T01:03:42;15.80;99.90
11908;DHT22;6014;47.690;9.130;2023-06-26T01:06:13;15.70;99.90
11908;DHT22;6014;47.690;9.130;2023-06-26T01:08:50;15.70;99.90
11908;DHT22;6014;47.690;9.130;2023-06-26T01:11:29;15.70;99.90
11908;DHT22;6014;47.690;9.130;2023-06-26T01:14:00;15.70;99.90
11908;DHT22;6014;47.690;9.130;2023-06-26T01:16:31;15.70;99.90
11908;DHT22;6014;47.690;9.130;2023-06-26T01:19:01;15.70;99.90
11908;DHT22;6014;47.690;9.130;2023-06-26T01:21:30;15.70;99.90
11908;DHT22;6014;47.690;9.130;2023-06-26T01:24:07;15.60;99.90
11908;DHT22;6014;47.690;9.130;2023-06-26T01:26:49;15.60;99.90
11908;DHT22;6014;47.690;9.130;2023-06-26T01:29:32;15.50;99.90
11908;DHT22;6014;47.690;9.130;2023-06-26T01:32:02;15.50;99.90
11908;DHT22;6014;47.690;9.130;2023-06-26T01:34:31;15.50;99.90
11908;DHT22;6014;47.690;9.130;2023-06-26T01:36:59;15.50;99.90
11908;DHT22;6014;47.690;9.130;2023-06-26T01:39:27;15.50;99.90
11908;DHT22;6014;47.690;9.130;2023-06-26T01:41:56;15.40;99.90
11908;DHT22;6014;47.690;9.130;2023-06-26T01:44:28;15.40;99.90
11908;DHT22;6014;47.690;9.130;2023-06-26T01:47:00;15.30;99.90
11908;DHT22;6014;47.690;9.130;2023-06-26T01:49:39;15.30;99.90
11908;DHT22;6014;47.690;9.130;2023-06-26T01:52:14;15.30;99.90
11908;DHT22;6014;47.690;9.130;2023-06-26T01:54:52;15.30;99.90
11908;DHT22;6014;47.690;9.130;2023-06-26T01:57:23;15.30;99.90
11908;DHT22;6014;47.690;9.130;2023-06-26T01:59:54;15.30;99.90
11908;DHT22;6014;47.690;9.130;2023-06-26T02:02:23;15.40;99.90
11908;DHT22;6014;47.690;9.130;2023-06-26T02:04:52;15.40;99.90
11908;DHT22;6014;47.690;9.130;2023-06-26T02:07:24;15.30;99.90
11908;DHT22;6014;47.690;9.130;2023-06-26T02:09:53;15.30;99.90
11908;DHT22;6014;47.690;9.130;2023-06-26T02:12:22;15.30;99.90
11908;DHT22;6014;47.690;9.130;2023-06-26T02:14:51;15.20;99.90
11908;DHT22;6014;47.690;9.130;2023-06-26T02:17:19;15.30;99.90
11908;DHT22;6014;47.690;9.130;2023-06-26T02:19:47;15.20;99.90
11908;DHT22;6014;47.690;9.130;2023-06-26T02:22:16;15.20;99.90
11908;DHT22;6014;47.690;9.130;2023-06-26T02:24:45;15.20;99.90
11908;DHT22;6014;47.690;9.130;2023-06-26T02:27:24;15.10;99.90
11908;DHT22;6014;47.690;9.130;2023-06-26T02:29:58;15.20;99.90
11908;DHT22;6014;47.690;9.130;2023-06-26T02:32:41;15.20;99.90
11908;DHT22;6014;47.690;9.130;2023-06-26T02:35:11;15.10;99.90
11908;DHT22;6014;47.690;9.130;2023-06-26T02:37:39;15.20;99.90
11908;DHT22;6014;47.690;9.130;2023-06-26T02:40:07;15.10;99.90
11908;DHT22;6014;47.690;9.130;2023-06-26T02:42:38;15.20;99.90
11908;DHT22;6014;47.690;9.130;2023-06-26T02:45:07;15.10;99.90
11908;DHT22;6014;47.690;9.130;2023-06-26T02:47:36;15.10;99.90
11908;DHT22;6014;47.690;9.130;2023-06-26T02:50:18;15.10;99.90
11908;DHT22;6014;47.690;9.130;2023-06-26T02:52:46;15.10;99.90
11908;DHT22;6014;47.690;9.130;2023-06-26T02:55:20;15.00;99.90
11908;DHT22;6014;47.690;9.130;2023-06-26T02:57:50;15.00;99.90
11908;DHT22;6014;47.690;9.130;2023-06-26T03:00:19;14.90;99.90
11908;DHT22;6014;47.690;9.130;2023-06-26T03:02:50;14.80;99.90
11908;DHT22;6014;47.690;9.130;2023-06-26T03:05:18;14.80;99.90
11908;DHT22;6014;47.690;9.130;2023-06-26T03:07:47;14.70;99.90
11908;DHT22;6014;47.690;9.130;2023-06-26T03:10:15;14.80;99.90
11908;DHT22;6014;47.690;9.130;2023-06-26T03:12:43;14.80;99.90
11908;DHT22;6014;47.690;9.130;2023-06-26T03:15:12;14.80;99.90
11908;DHT22;6014;47.690;9.130;2023-06-26T03:17:41;14.80;99.90
11908;DHT22;6014;47.690;9.130;2023-06-26T03:20:10;14.80;99.90
11908;DHT22;6014;47.690;9.130;2023-06-26T03:22:38;14.80;99.90
11908;DHT22;6014;47.690;9.130;2023-06-26T03:25:07;14.80;99.90
11908;DHT22;6014;47.690;9.130;2023-06-26T03:27:35;14.80;99.90
11908;DHT22;6014;47.690;9.130;2023-06-26T03:30:13;14.80;99.90
11908;DHT22;6014;47.690;9.130;2023-06-26T03:32:42;14.80;99.90
11908;DHT22;6014;47.690;9.130;2023-06-26T03:35:10;14.90;99.90
11908;DHT22;6014;47.690;9.130;2023-06-26T03:37:38;14.90;99.90
11908;DHT22;6014;47.690;9.130;2023-06-26T03:40:08;14.90;99.90
11908;DHT22;6014;47.690;9.130;2023-06-26T03:42:36;14.90;99.90
11908;DHT22;6014;47.690;9.130;2023-06-26T03:45:05;14.90;99.90
11908;DHT22;6014;47.690;9.130;2023-06-26T03:47:35;15.00;99.90
11908;DHT22;6014;47.690;9.130;2023-06-26T03:50:11;15.00;99.90
11908;DHT22;6014;47.690;9.130;2023-06-26T03:52:39;15.00;99.90
11908;DHT22;6014;47.690;9.130;2023-06-26T03:55:08;15.00;99.90
11908;DHT22;6014;47.690;9.130;2023-06-26T03:57:36;14.90;99.90
11908;DHT22;6014;47.690;9.130;2023-06-26T04:00:05;14.90;99.90
11908;DHT22;6014;47.690;9.130;2023-06-26T04:02:36;15.00;99.90
11908;DHT22;6014;47.690;9.130;2023-06-26T04:05:05;15.00;99.90
11908;DHT22;6014;47.690;9.130;2023-06-26T04:07:34;15.10;99.90
11908;DHT22;6014;47.690;9.130;2023-06-26T04:10:03;15.10;99.90
11908;DHT22;6014;47.690;9.130;2023-06-26T04:12:42;15.10;99.90
11908;DHT22;6014;47.690;9.130;2023-06-26T04:15:10;15.10;99.90
11908;DHT22;6014;47.690;9.130;2023-06-26T04:17:39;15.10;99.90
11908;DHT22;6014;47.690;9.130;2023-06-26T04:20:09;15.20;99.90
11908;DHT22;6014;47.690;9.130;2023-06-26T04:22:37;15.10;99.90
11908;DHT22;6014;47.690;9.130;2023-06-26T04:25:06;15.20;99.90
11908;DHT22;6014;47.690;9.130;2023-06-26T04:27:34;15.20;99.90
11908;DHT22;6014;47.690;9.130;2023-06-26T04:30:07;15.30;99.90
11908;DHT22;6014;47.690;9.130;2023-06-26T04:32:35;15.40;99.90
11908;DHT22;6014;47.690;9.130;2023-06-26T04:35:05;15.50;99.90
11908;DHT22;6014;47.690;9.130;2023-06-26T04:37:33;15.70;99.90
11908;DHT22;6014;47.690;9.130;2023-06-26T04:40:04;15.90;99.90
11908;DHT22;6014;47.690;9.130;2023-06-26T04:42:32;16.00;99.90
11908;DHT22;6014;47.690;9.130;2023-06-26T04:45:01;16.30;99.90
11908;DHT22;6014;47.690;9.130;2023-06-26T04:47:30;16.50;99.90
11908;DHT22;6014;47.690;9.130;2023-06-26T04:49:58;16.70;99.90
11908;DHT22;6014;47.690;9.130;2023-06-26T04:52:28;16.80;99.90
11908;DHT22;6014;47.690;9.130;2023-06-26T04:54:56;17.00;99.90
11908;DHT22;6014;47.690;9.130;2023-06-26T04:57:24;17.20;99.90
11908;DHT22;6014;47.690;9.130;2023-06-26T04:59:59;17.40;99.90
11908;DHT22;6014;47.690;9.130;2023-06-26T05:02:27;17.50;99.90
11908;DHT22;6014;47.690;9.130;2023-06-26T05:04:56;17.80;99.90
11908;DHT22;6014;47.690;9.130;2023-06-26T05:07:24;18.00;99.90
11908;DHT22;6014;47.690;9.130;2023-06-26T05:09:54;18.30;99.90
11908;DHT22;6014;47.690;9.130;2023-06-26T05:12:22;18.50;99.90
11908;DHT22;6014;47.690;9.130;2023-06-26T05:14:50;18.60;99.90
11908;DHT22;6014;47.690;9.130;2023-06-26T05:17:19;19.10;99.90
11908;DHT22;6014;47.690;9.130;2023-06-26T05:19:47;19.40;99.90
11908;DHT22;6014;47.690;9.130;2023-06-26T05:22:17;19.50;99.90
11908;DHT22;6014;47.690;9.130;2023-06-26T05:24:56;19.70;99.90
11908;DHT22;6014;47.690;9.130;2023-06-26T05:27:27;20.00;99.90
11908;DHT22;6014;47.690;9.130;2023-06-26T05:29:56;20.50;99.90
11908;DHT22;6014;47.690;9.130;2023-06-26T05:32:24;20.80;99.90
11908;DHT22;6014;47.690;9.130;2023-06-26T05:34:54;21.60;99.90
11908;DHT22;6014;47.690;9.130;2023-06-26T05:37:58;21.40;99.90
11908;DHT22;6014;47.690;9.130;2023-06-26T05:40:28;21.80;99.90
11908;DHT22;6014;47.690;9.130;2023-06-26T05:42:56;22.00;99.90
11908;DHT22;6014;47.690;9.130;2023-06-26T05:45:24;22.00;99.90
11908;DHT22;6014;47.690;9.130;2023-06-26T05:47:53;22.40;99.90
11908;DHT22;6014;47.690;9.130;2023-06-26T05:50:22;22.50;99.90
11908;DHT22;6014;47.690;9.130;2023-06-26T05:52:51;22.70;99.90
11908;DHT22;6014;47.690;9.130;2023-06-26T05:55:21;22.80;99.90
11908;DHT22;6014;47.690;9.130;2023-06-26T05:57:51;22.80;99.90
11908;DHT22;6014;47.690;9.130;2023-06-26T06:00:22;22.80;99.90
11908;DHT22;6014;47.690;9.130;2023-06-26T06:02:50;22.90;99.90
11908;DHT22;6014;47.690;9.130;2023-06-26T06:05:21;23.10;99.90
11908;DHT22;6014;47.690;9.130;2023-06-26T06:07:50;23.60;99.90
11908;DHT22;6014;47.690;9.130;2023-06-26T06:10:18;23.70;99.90
11908;DHT22;6014;47.690;9.130;2023-06-26T06:12:46;23.70;99.90
11908;DHT22;6014;47.690;9.130;2023-06-26T06:15:17;23.60;99.90
11908;DHT22;6014;47.690;9.130;2023-06-26T06:17:45;23.20;99.90
11908;DHT22;6014;47.690;9.130;2023-06-26T06:20:13;23.40;99.90
11908;DHT22;6014;47.690;9.130;2023-06-26T06:22:41;23.20;99.90
11908;DHT22;6014;47.690;9.130;2023-06-26T06:25:09;23.40;99.90
11908;DHT22;6014;47.690;9.130;2023-06-26T06:27:37;24.20;99.90
11908;DHT22;6014;47.690;9.130;2023-06-26T06:30:07;24.30;99.90
11908;DHT22;6014;47.690;9.130;2023-06-26T06:32:37;25.00;99.90
11908;DHT22;6014;47.690;9.130;2023-06-26T06:35:06;25.00;99.90
11908;DHT22;6014;47.690;9.130;2023-06-26T06:37:37;25.10;99.90
11908;DHT22;6014;47.690;9.130;2023-06-26T06:40:06;24.70;99.90
11908;DHT22;6014;47.690;9.130;2023-06-26T06:42:35;24.90;99.90
11908;DHT22;6014;47.690;9.130;2023-06-26T06:45:06;24.80;99.40
11908;DHT22;6014;47.690;9.130;2023-06-26T06:47:57;24.30;99.90
11908;DHT22;6014;47.690;9.130;2023-06-26T06:50:25;24.50;99.90
11908;DHT22;6014;47.690;9.130;2023-06-26T06:52:53;24.30;99.90
11908;DHT22;6014;47.690;9.130;2023-06-26T06:55:21;24.50;99.90
11908;DHT22;6014;47.690;9.130;2023-06-26T06:57:50;25.00;99.90
11908;DHT22;6014;47.690;9.130;2023-06-26T07:00:18;25.20;99.90
11908;DHT22;6014;47.690;9.130;2023-06-26T07:02:46;25.60;99.40
11908;DHT22;6014;47.690;9.130;2023-06-26T07:05:16;25.50;98.70
11908;DHT22;6014;47.690;9.130;2023-06-26T07:07:45;25.20;99.60
11908;DHT22;6014;47.690;9.130;2023-06-26T07:10:13;25.80;98.70
11908;DHT22;6014;47.690;9.130;2023-06-26T07:12:42;25.50;98.10
11908;DHT22;6014;47.690;9.130;2023-06-26T07:15:11;26.30;98.00
11908;DHT22;6014;47.690;9.130;2023-06-26T07:17:39;26.40;96.10
11908;DHT22;6014;47.690;9.130;2023-06-26T07:20:08;25.90;97.00
11908;DHT22;6014;47.690;9.130;2023-06-26T07:22:43;26.20;96.00
11908;DHT22;6014;47.690;9.130;2023-06-26T07:25:13;26.30;96.00
11908;DHT22;6014;47.690;9.130;2023-06-26T07:27:41;26.50;96.00
11908;DHT22;6014;47.690;9.130;2023-06-26T07:30:11;26.50;95.60
11908;DHT22;6014;47.690;9.130;2023-06-26T07:32:39;26.20;95.30
11908;DHT22;6014;47.690;9.130;2023-06-26T07:35:09;26.40;95.60
11908;DHT22;6014;47.690;9.130;2023-06-26T07:37:37;26.90;94.60
11908;DHT22;6014;47.690;9.130;2023-06-26T07:40:10;26.40;95.00
11908;DHT22;6014;47.690;9.130;2023-06-26T07:42:38;26.80;95.30
11908;DHT22;6014;47.690;9.130;2023-06-26T07:45:08;26.80;94.40
11908;DHT22;6014;47.690;9.130;2023-06-26T07:47:39;27.60;92.80
11908;DHT22;6014;47.690;9.130;2023-06-26T07:50:08;27.10;92.50
11908;DHT22;6014;47.690;9.130;2023-06-26T07:52:36;27.50;92.20
11908;DHT22;6014;47.690;9.130;2023-06-26T07:55:05;27.50;92.30
11908;DHT22;6014;47.690;9.130;2023-06-26T07:57:35;28.10;92.00
11908;DHT22;6014;47.690;9.130;2023-06-26T08:00:04;28.10;90.50
11908;DHT22;6014;47.690;9.130;2023-06-26T08:02:33;27.30;90.30
11908;DHT22;6014;47.690;9.130;2023-06-26T08:05:01;27.30;91.70
11908;DHT22;6014;47.690;9.130;2023-06-26T08:07:30;27.30;91.80
11908;DHT22;6014;47.690;9.130;2023-06-26T08:09:58;27.90;90.40
11908;DHT22;6014;47.690;9.130;2023-06-26T08:12:26;27.90;90.50
11908;DHT22;6014;47.690;9.130;2023-06-26T08:14:56;27.90;90.50
11908;DHT22;6014;47.690;9.130;2023-06-26T08:17:24;28.20;89.00
11908;DHT22;6014;47.690;9.130;2023-06-26T08:19:56;28.00;88.00
11908;DHT22;6014;47.690;9.130;2023-06-26T08:22:24;28.40;86.70
11908;DHT22;6014;47.690;9.130;2023-06-26T08:24:52;28.20;86.70
11908;DHT22;6014;47.690;9.130;2023-06-26T08:27:20;28.20;87.70
11908;DHT22;6014;47.690;9.130;2023-06-26T08:29:48;28.30;86.20
11908;DHT22;6014;47.690;9.130;2023-06-26T08:32:18;29.20;84.30
11908;DHT22;6014;47.690;9.130;2023-06-26T08:34:47;29.00;82.90
11908;DHT22;6014;47.690;9.130;2023-06-26T08:37:15;28.80;83.70
11908;DHT22;6014;47.690;9.130;2023-06-26T08:39:44;29.10;82.60
11908;DHT22;6014;47.690;9.130;2023-06-26T08:42:12;29.70;82.10
11908;DHT22;6014;47.690;9.130;2023-06-26T08:44:40;29.30;80.90
11908;DHT22;6014;47.690;9.130;2023-06-26T08:47:30;29.30;79.50
11908;DHT22;6014;47.690;9.130;2023-06-26T08:50:06;29.20;78.90
11908;DHT22;6014;47.690;9.130;2023-06-26T08:52:36;29.30;79.00
11908;DHT22;6014;47.690;9.130;2023-06-26T08:55:09;29.80;75.40
11908;DHT22;6014;47.690;9.130;2023-06-26T08:57:38;29.40;73.70
11908;DHT22;6014;47.690;9.130;2023-06-26T09:00:09;29.30;74.60
11908;DHT22;6014;47.690;9.130;2023-06-26T09:02:44;29.30;73.30
11908;DHT22;6014;47.690;9.130;2023-06-26T09:05:13;29.40;73.60
11908;DHT22;6014;47.690;9.130;2023-06-26T09:07:41;29.40;73.00
11908;DHT22;6014;47.690;9.130;2023-06-26T09:10:09;30.00;71.00
11908;DHT22;6014;47.690;9.130;2023-06-26T09:12:37;30.30;73.00
11908;DHT22;6014;47.690;9.130;2023-06-26T09:15:06;30.40;72.80
11908;DHT22;6014;47.690;9.130;2023-06-26T09:17:39;30.30;70.40
11908;DHT22;6014;47.690;9.130;2023-06-26T09:20:10;30.50;69.60
11908;DHT22;6014;47.690;9.130;2023-06-26T09:22:41;30.10;68.70
11908;DHT22;6014;47.690;9.130;2023-06-26T09:25:10;29.90;69.10
11908;DHT22;6014;47.690;9.130;2023-06-26T09:27:38;30.00;67.00
11908;DHT22;6014;47.690;9.130;2023-06-26T09:30:07;30.20;67.40
11908;DHT22;6014;47.690;9.130;2023-06-26T09:32:36;30.40;65.50
11908;DHT22;6014;47.690;9.130;2023-06-26T09:35:05;30.70;64.40
11908;DHT22;6014;47.690;9.130;2023-06-26T09:37:35;30.60;62.30
11908;DHT22;6014;47.690;9.130;2023-06-26T09:40:05;30.40;60.90
11908;DHT22;6014;47.690;9.130;2023-06-26T09:42:34;30.70;62.80
11908;DHT22;6014;47.690;9.130;2023-06-26T09:45:02;30.90;62.30
11908;DHT22;6014;47.690;9.130;2023-06-26T09:47:32;30.90;60.00
11908;DHT22;6014;47.690;9.130;2023-06-26T09:50:03;30.90;59.40
11908;DHT22;6014;47.690;9.130;2023-06-26T09:52:41;30.80;59.90
11908;DHT22;6014;47.690;9.130;2023-06-26T09:55:09;30.90;59.30
11908;DHT22;6014;47.690;9.130;2023-06-26T09:57:38;30.90;56.30
11908;DHT22;6014;47.690;9.130;2023-06-26T10:00:08;30.80;57.70
11908;DHT22;6014;47.690;9.130;2023-06-26T10:02:36;31.20;57.60
11908;DHT22;6014;47.690;9.130;2023-06-26T10:05:05;31.50;56.70
11908;DHT22;6014;47.690;9.130;2023-06-26T10:07:35;31.50;54.90
11908;DHT22;6014;47.690;9.130;2023-06-26T10:10:06;31.50;55.50
11908;DHT22;6014;47.690;9.130;2023-06-26T10:12:35;31.60;55.40
11908;DHT22;6014;47.690;9.130;2023-06-26T10:15:03;31.40;54.50
11908;DHT22;6014;47.690;9.130;2023-06-26T10:17:35;31.40;54.60
11908;DHT22;6014;47.690;9.130;2023-06-26T10:20:07;31.50;53.50
11908;DHT22;6014;47.690;9.130;2023-06-26T10:22:41;31.50;53.00
11908;DHT22;6014;47.690;9.130;2023-06-26T10:25:14;31.60;52.30
11908;DHT22;6014;47.690;9.130;2023-06-26T10:27:50;31.70;51.40
11908;DHT22;6014;47.690;9.130;2023-06-26T10:30:22;31.80;51.10
11908;DHT22;6014;47.690;9.130;2023-06-26T10:32:53;31.90;50.60
11908;DHT22;6014;47.690;9.130;2023-06-26T10:35:21;31.60;51.10
11908;DHT22;6014;47.690;9.130;2023-06-26T10:37:51;31.90;52.00
11908;DHT22;6014;47.690;9.130;2023-06-26T10:40:27;32.00;50.20
11908;DHT22;6014;47.690;9.130;2023-06-26T10:43:06;32.00;49.80
11908;DHT22;6014;47.690;9.130;2023-06-26T10:45:36;31.90;47.90
11908;DHT22;6014;47.690;9.130;2023-06-26T10:48:13;32.20;48.50
11908;DHT22;6014;47.690;9.130;2023-06-26T10:50:42;32.20;46.90
11908;DHT22;6014;47.690;9.130;2023-06-26T10:53:14;32.10;48.10
11908;DHT22;6014;47.690;9.130;2023-06-26T10:55:51;32.20;46.80
11908;DHT22;6014;47.690;9.130;2023-06-26T10:58:34;32.40;45.10
11908;DHT22;6014;47.690;9.130;2023-06-26T11:01:16;32.20;44.20
11908;DHT22;6014;47.690;9.130;2023-06-26T11:03:46;32.00;44.30
11908;DHT22;6014;47.690;9.130;2023-06-26T11:06:19;32.50;45.70
11908;DHT22;6014;47.690;9.130;2023-06-26T11:08:48;32.80;43.30
11908;DHT22;6014;47.690;9.130;2023-06-26T11:14:33;32.80;40.00
11908;DHT22;6014;47.690;9.130;2023-06-26T11:17:04;32.80;40.80
11908;DHT22;6014;47.690;9.130;2023-06-26T11:19:33;32.40;41.50
11908;DHT22;6014;47.690;9.130;2023-06-26T11:22:05;32.80;42.30
11908;DHT22;6014;47.690;9.130;2023-06-26T11:24:33;33.30;39.30
11908;DHT22;6014;47.690;9.130;2023-06-26T11:27:03;33.40;38.30
11908;DHT22;6014;47.690;9.130;2023-06-26T11:29:33;32.80;37.20
11908;DHT22;6014;47.690;9.130;2023-06-26T11:32:04;32.90;38.10
11908;DHT22;6014;47.690;9.130;2023-06-26T11:34:34;32.90;36.80
11908;DHT22;6014;47.690;9.130;2023-06-26T11:37:05;32.80;36.60
11908;DHT22;6014;47.690;9.130;2023-06-26T11:39:33;32.60;37.30
11908;DHT22;6014;47.690;9.130;2023-06-26T11:42:01;32.50;36.00
11908;DHT22;6014;47.690;9.130;2023-06-26T11:44:30;32.80;38.50
11908;DHT22;6014;47.690;9.130;2023-06-26T11:47:00;32.90;36.40
11908;DHT22;6014;47.690;9.130;2023-06-26T11:49:29;32.80;36.50
11908;DHT22;6014;47.690;9.130;2023-06-26T11:51:57;33.10;39.90
11908;DHT22;6014;47.690;9.130;2023-06-26T11:54:26;33.10;35.00
11908;DHT22;6014;47.690;9.130;2023-06-26T11:56:56;33.00;36.60
11908;DHT22;6014;47.690;9.130;2023-06-26T11:59:34;33.20;36.20
11908;DHT22;6014;47.690;9.130;2023-06-26T12:02:07;33.20;35.80
11908;DHT22;6014;47.690;9.130;2023-06-26T12:04:37;33.20;36.40
11908;DHT22;6014;47.690;9.130;2023-06-26T12:07:07;33.10;36.90
11908;DHT22;6014;47.690;9.130;2023-06-26T12:09:43;33.00;36.90
11908;DHT22;6014;47.690;9.130;2023-06-26T12:12:14;33.00;36.40
11908;DHT22;6014;47.690;9.130;2023-06-26T12:14:43;33.00;35.30
11908;DHT22;6014;47.690;9.130;2023-06-26T12:17:15;33.40;35.70
11908;DHT22;6014;47.690;9.130;2023-06-26T12:19:46;33.20;35.20
11908;DHT22;6014;47.690;9.130;2023-06-26T12:22:15;33.00;36.10
11908;DHT22;6014;47.690;9.130;2023-06-26T12:24:44;33.10;36.10
11908;DHT22;6014;47.690;9.130;2023-06-26T12:27:14;33.40;34.00
11908;DHT22;6014;47.690;9.130;2023-06-26T12:29:49;33.20;35.00
11908;DHT22;6014;47.690;9.130;2023-06-26T12:32:21;33.40;36.10
11908;DHT22;6014;47.690;9.130;2023-06-26T12:34:51;32.80;36.30
11908;DHT22;6014;47.690;9.130;2023-06-26T12:37:20;32.80;37.20
11908;DHT22;6014;47.690;9.130;2023-06-26T12:39:50;33.10;36.90
11908;DHT22;6014;47.690;9.130;2023-06-26T12:42:20;32.70;38.00
11908;DHT22;6014;47.690;9.130;2023-06-26T12:44:48;31.60;39.60
11908;DHT22;6014;47.690;9.130;2023-06-26T12:47:17;31.40;42.00
11908;DHT22;6014;47.690;9.130;2023-06-26T12:49:51;31.10;42.70
11908;DHT22;6014;47.690;9.130;2023-06-26T12:52:25;31.20;42.90
11908;DHT22;6014;47.690;9.130;2023-06-26T12:54:54;31.10;42.40
11908;DHT22;6014;47.690;9.130;2023-06-26T12:57:26;31.00;44.60
11908;DHT22;6014;47.690;9.130;2023-06-26T12:59:54;31.60;45.00
11908;DHT22;6014;47.690;9.130;2023-06-26T13:02:22;32.40;44.40
11908;DHT22;6014;47.690;9.130;2023-06-26T13:04:53;32.60;43.40
11908;DHT22;6014;47.690;9.130;2023-06-26T13:07:21;32.70;43.00
11908;DHT22;6014;47.690;9.130;2023-06-26T13:09:52;32.80;43.80
11908;DHT22;6014;47.690;9.130;2023-06-26T13:12:20;33.10;43.30
11908;DHT22;6014;47.690;9.130;2023-06-26T13:14:48;33.00;44.00
11908;DHT22;6014;47.690;9.130;2023-06-26T13:17:17;33.20;43.80
11908;DHT22;6014;47.690;9.130;2023-06-26T13:19:46;33.00;42.80
11908;DHT22;6014;47.690;9.130;2023-06-26T13:22:15;33.00;42.40
11908;DHT22;6014;47.690;9.130;2023-06-26T13:24:43;33.30;42.00
11908;DHT22;6014;47.690;9.130;2023-06-26T13:27:13;33.00;42.10
11908;DHT22;6014;47.690;9.130;2023-06-26T13:29:42;33.10;42.10
11908;DHT22;6014;47.690;9.130;2023-06-26T13:32:13;33.20;43.10
11908;DHT22;6014;47.690;9.130;2023-06-26T13:34:41;33.30;44.10
11908;DHT22;6014;47.690;9.130;2023-06-26T13:37:11;32.90;43.10
11908;DHT22;6014;47.690;9.130;2023-06-26T13:39:41;33.00;44.00
11908;DHT22;6014;47.690;9.130;2023-06-26T13:42:18;32.80;45.00
11908;DHT22;6014;47.690;9.130;2023-06-26T13:44:46;33.10;43.10
11908;DHT22;6014;47.690;9.130;2023-06-26T13:47:28;32.70;42.90
11908;DHT22;6014;47.690;9.130;2023-06-26T13:49:57;32.60;43.20
11908;DHT22;6014;47.690;9.130;2023-06-26T13:52:27;32.60;42.90
11908;DHT22;6014;47.690;9.130;2023-06-26T13:54:57;32.50;43.70
11908;DHT22;6014;47.690;9.130;2023-06-26T13:57:25;32.50;43.70
11908;DHT22;6014;47.690;9.130;2023-06-26T13:59:54;32.40;44.50
11908;DHT22;6014;47.690;9.130;2023-06-26T14:02:32;32.30;46.60
11908;DHT22;6014;47.690;9.130;2023-06-26T14:05:00;32.50;44.90
11908;DHT22;6014;47.690;9.130;2023-06-26T14:07:30;32.80;44.20
11908;DHT22;6014;47.690;9.130;2023-06-26T14:10:00;32.60;46.10
11908;DHT22;6014;47.690;9.130;2023-06-26T14:12:29;32.60;43.60
11908;DHT22;6014;47.690;9.130;2023-06-26T14:14:57;32.50;45.70
11908;DHT22;6014;47.690;9.130;2023-06-26T14:17:25;32.50;43.20
11908;DHT22;6014;47.690;9.130;2023-06-26T14:19:54;32.20;41.00
11908;DHT22;6014;47.690;9.130;2023-06-26T14:22:22;32.40;41.20
11908;DHT22;6014;47.690;9.130;2023-06-26T14:24:50;32.60;40.30
11908;DHT22;6014;47.690;9.130;2023-06-26T14:27:20;32.90;41.10
11908;DHT22;6014;47.690;9.130;2023-06-26T14:29:48;33.00;39.50
11908;DHT22;6014;47.690;9.130;2023-06-26T14:32:16;32.90;38.60
11908;DHT22;6014;47.690;9.130;2023-06-26T14:34:44;32.60;39.00
11908;DHT22;6014;47.690;9.130;2023-06-26T14:37:12;32.50;41.00
11908;DHT22;6014;47.690;9.130;2023-06-26T14:39:41;32.80;39.10
11908;DHT22;6014;47.690;9.130;2023-06-26T14:42:09;33.00;39.30
11908;DHT22;6014;47.690;9.130;2023-06-26T14:44:39;32.90;38.70
11908;DHT22;6014;47.690;9.130;2023-06-26T14:47:08;32.90;38.50
11908;DHT22;6014;47.690;9.130;2023-06-26T14:49:36;32.50;40.30
11908;DHT22;6014;47.690;9.130;2023-06-26T14:52:05;32.10;39.40
11908;DHT22;6014;47.690;9.130;2023-06-26T14:54:35;31.40;40.10
11908;DHT22;6014;47.690;9.130;2023-06-26T14:57:04;31.40;40.70
11908;DHT22;6014;47.690;9.130;2023-06-26T14:59:33;32.10;41.80
11908;DHT22;6014;47.690;9.130;2023-06-26T15:02:11;32.70;39.00
11908;DHT22;6014;47.690;9.130;2023-06-26T15:04:39;32.80;39.10
11908;DHT22;6014;47.690;9.130;2023-06-26T15:07:08;32.70;38.40
11908;DHT22;6014;47.690;9.130;2023-06-26T15:09:36;32.50;37.90
11908;DHT22;6014;47.690;9.130;2023-06-26T15:12:09;32.70;38.00
11908;DHT22;6014;47.690;9.130;2023-06-26T15:14:37;33.00;38.20
11908;DHT22;6014;47.690;9.130;2023-06-26T15:17:06;32.70;37.80
11908;DHT22;6014;47.690;9.130;2023-06-26T15:19:37;32.80;39.00
11908;DHT22;6014;47.690;9.130;2023-06-26T15:22:06;32.50;37.60
11908;DHT22;6014;47.690;9.130;2023-06-26T15:24:34;32.60;39.00
11908;DHT22;6014;47.690;9.130;2023-06-26T15:27:03;32.00;39.70
11908;DHT22;6014;47.690;9.130;2023-06-26T15:29:33;31.90;40.90
11908;DHT22;6014;47.690;9.130;2023-06-26T15:32:01;32.30;42.50
11908;DHT22;6014;47.690;9.130;2023-06-26T15:34:29;32.60;42.70
11908;DHT22;6014;47.690;9.130;2023-06-26T15:36:59;32.50;41.10
11908;DHT22;6014;47.690;9.130;2023-06-26T15:39:27;32.30;40.50
11908;DHT22;6014;47.690;9.130;2023-06-26T15:41:55;32.40;40.10
11908;DHT22;6014;47.690;9.130;2023-06-26T15:44:23;32.20;41.00
11908;DHT22;6014;47.690;9.130;2023-06-26T15:46:51;32.40;41.80
11908;DHT22;6014;47.690;9.130;2023-06-26T15:49:20;32.00;41.50
11908;DHT22;6014;47.690;9.130;2023-06-26T15:51:48;31.50;44.00
11908;DHT22;6014;47.690;9.130;2023-06-26T15:54:17;31.40;44.60
11908;DHT22;6014;47.690;9.130;2023-06-26T15:56:45;31.80;44.10
11908;DHT22;6014;47.690;9.130;2023-06-26T15:59:14;32.30;42.70
11908;DHT22;6014;47.690;9.130;2023-06-26T16:01:45;32.00;42.90
11908;DHT22;6014;47.690;9.130;2023-06-26T16:04:15;32.10;42.40
11908;DHT22;6014;47.690;9.130;2023-06-26T16:06:43;32.30;40.80